Kate Golding — WDH7802 — position and weather

sailwx.info

Track history (hours):
 
Tides and Currents Weather Stations Pressure Air Temp Water Temp Dewpoint Dewpoint Depression Visibility Wind Speed Wind Dir Waves Ship Positions

Kate Golding

Owner: GOLDING BARGE LINE, INC, VICKSBURG, MS. More information available from US FCC via Universal Licensing System and Coast Guard Vessel Documentation Center.

Last reported at 2017-Sep-22 02:00 UTC. Time now 2017-Sep-22 10:05 UTC.
Position N 30°10' W 093°19'.

Length 121 m; draft 2.4 m.

Type: . MMSI: 367651810.

Date/timePositionNaut miles runAvg speedWind from/ knotsBaromVisibWave heightAir tempDewpointWater temp
2017-Sep-22 02:00N 30°10' W 093°19'0 0.0
2017-Sep-22 01:30N 30°10' W 093°19'0 0.0
2017-Sep-22 01:00N 30°10' W 093°19'0 0.0
2017-Sep-22 00:30N 30°10' W 093°19'0 0.0
2017-Sep-22 00:00N 30°10' W 093°19'0 0.0
2017-Sep-21 23:30N 30°10' W 093°19'0 0.0
2017-Sep-21 23:00N 30°10' W 093°19'1 2.8
2017-Sep-21 22:30N 30°11' W 093°19'3 5.2
2017-Sep-21 22:00N 30°12' W 093°16'1 1.9
2017-Sep-21 21:31N 30°13' W 093°16'0 0.6
2017-Sep-21 20:58N 30°14' W 093°16'0 0.0
2017-Sep-21 20:28N 30°14' W 093°16'0 0.0
2017-Sep-21 19:58N 30°14' W 093°16'0 0.0
2017-Sep-21 19:25N 30°14' W 093°16'0 0.0
2017-Sep-21 18:55N 30°14' W 093°16'0 0.0
2017-Sep-21 18:28N 30°14' W 093°16'0 0.0
2017-Sep-21 17:58N 30°14' W 093°16'0 0.0
2017-Sep-21 17:28N 30°14' W 093°16'0 0.0
2017-Sep-21 16:55N 30°14' W 093°16'0 0.0
2017-Sep-21 16:22N 30°14' W 093°16'0 0.0
2017-Sep-21 15:58N 30°13' W 093°16'0 0.0
2017-Sep-21 15:28N 30°14' W 093°16'0 0.0
2017-Sep-21 14:58N 30°13' W 093°16'0 0.0
2017-Sep-21 14:28N 30°14' W 093°16'0 0.0
2017-Sep-21 13:58N 30°14' W 093°16'0 0.0
2017-Sep-21 13:28N 30°14' W 093°16'0 0.0
2017-Sep-21 12:58N 30°14' W 093°16'0 0.0
2017-Sep-21 12:28N 30°14' W 093°16'0 0.0
2017-Sep-21 11:58N 30°13' W 093°16'0 0.0
2017-Sep-21 11:28N 30°14' W 093°16'0 0.0
2017-Sep-21 10:58N 30°14' W 093°16'0 0.0
2017-Sep-21 10:28N 30°14' W 093°16'0 0.0
2017-Sep-21 09:58N 30°13' W 093°16'0 0.0
2017-Sep-21 09:28N 30°14' W 093°16'0 0.0
2017-Sep-21 08:58N 30°14' W 093°16'0 0.0
2017-Sep-21 08:28N 30°14' W 093°16'0 0.0
2017-Sep-21 07:58N 30°14' W 093°16'0 0.0
2017-Sep-21 07:28N 30°14' W 093°16'0 0.0
2017-Sep-21 06:58N 30°14' W 093°16'0 0.0
2017-Sep-21 06:28N 30°14' W 093°16'0 0.0
2017-Sep-21 05:58N 30°14' W 093°16'0 0.7
2017-Sep-21 05:28N 30°13' W 093°16'1 1.9
2017-Sep-21 05:00N 30°12' W 093°16'0 0.8
2017-Sep-21 04:30N 30°12' W 093°17'2 4.2
2017-Sep-21 04:00N 30°11' W 093°19'2 4.5
2017-Sep-21 03:31N 30°09' W 093°20'3 5.1
2017-Sep-21 03:00N 30°07' W 093°20'2 4.2
2017-Sep-21 02:30N 30°04' W 093°20'1 1.2
2017-Sep-21 01:59N 30°04' W 093°21'1 1.7
2017-Sep-21 01:29N 30°04' W 093°22'1 2.9
2017-Sep-21 01:00N 30°04' W 093°23'2 5.0
2017-Sep-21 00:30N 30°04' W 093°26'2 4.4
2017-Sep-21 00:00N 30°04' W 093°29'0 0.0
2017-Sep-20 23:30N 30°04' W 093°29'0 0.6
2017-Sep-20 23:00N 30°04' W 093°29'3 5.3
2017-Sep-20 22:30N 30°04' W 093°32'3 5.3
2017-Sep-20 21:59N 30°04' W 093°35'3 5.2
2017-Sep-20 21:28N 30°04' W 093°38'72 3.7
2017-Sep-20 01:52N 29°30' W 094°52'3 7.8
2017-Sep-20 01:30N 29°32' W 094°54'3 6.8
2017-Sep-20 01:00N 29°35' W 094°56'4 7.8
2017-Sep-20 00:30N 29°39' W 094°58'4 7.6
2017-Sep-20 00:00N 29°42' W 095°00'3 6.2
2017-Sep-19 23:30N 29°44' W 095°03'3 5.1
2017-Sep-19 22:57N 29°45' W 095°06'3 6.9
2017-Sep-19 22:30N 29°45' W 095°10'4 0.2
2017-Sep-19 03:23N 29°43' W 095°14'0 0.0
2017-Sep-19 02:59N 29°43' W 095°14'0 0.0
2017-Sep-19 02:29N 29°43' W 095°14'0 0.0
2017-Sep-18 23:47N 29°43' W 095°14'0 0.0
2017-Sep-18 23:23N 29°43' W 095°14'0 0.0
2017-Sep-18 22:53N 29°43' W 095°14'0 0.0
2017-Sep-18 22:29N 29°43' W 095°14'0 0.1
2017-Sep-18 21:52N 29°43' W 095°14'1 1.6
2017-Sep-18 21:29N 29°44' W 095°14'3 5.8
2017-Sep-18 20:58N 29°45' W 095°11'2 4.5
2017-Sep-18 20:29N 29°44' W 095°08'3 3.9
2017-Sep-18 19:49N 29°45' W 095°06'2 4.3
2017-Sep-18 19:23N 29°47' W 095°04'1 0.5
2017-Sep-18 18:03N 29°47' W 095°04'0 0.1
2017-Sep-18 17:37N 29°47' W 095°04'0 0.2
2017-Sep-18 17:19N 29°47' W 095°04'2 1.4
2017-Sep-18 15:45N 29°46' W 095°06'0 0.0
2017-Sep-18 15:12N 29°46' W 095°06'0 0.0
2017-Sep-18 14:57N 29°46' W 095°06'0 0.0
2017-Sep-18 14:30N 29°46' W 095°06'0 0.0
2017-Sep-18 14:00N 29°46' W 095°06'0 0.0
2017-Sep-18 13:30N 29°46' W 095°06'0 0.0
2017-Sep-18 12:51N 29°46' W 095°06'0 0.0
2017-Sep-18 12:24N 29°46' W 095°06'0 0.0
2017-Sep-18 10:30N 29°46' W 095°06'0 0.0
2017-Sep-18 10:00N 29°46' W 095°06'0 0.0
2017-Sep-18 09:22N 29°46' W 095°06'1 0.1
2017-Sep-18 01:26N 29°46' W 095°05'4 6.1
2017-Sep-18 00:52N 29°44' W 095°09'1 0.8
2017-Sep-17 23:00N 29°45' W 095°10'4 6.2
2017-Sep-17 22:17N 29°46' W 095°05'0 0.0
2017-Sep-17 06:58N 29°46' W 095°06'2 2.9
2017-Sep-17 06:15N 29°47' W 095°04'2 3.8
2017-Sep-17 05:50N 29°46' W 095°05'2 4.9
2017-Sep-17 05:30N 29°45' W 095°06'3 4.7
2017-Sep-17 04:56N 29°44' W 095°09'2 2.0
2017-Sep-17 03:47N 29°44' W 095°12'3 6.0
2017-Sep-17 03:15N 29°44' W 095°08'3 5.7
2017-Sep-17 02:44N 29°46' W 095°05'2 1.4
2017-Sep-17 01:02N 29°47' W 095°04'0 0.1
2017-Sep-16 22:54N 29°47' W 095°04'2 4.1
2017-Sep-16 22:28N 29°46' W 095°05'3 0.1
2017-Sep-16 00:56N 29°44' W 095°08'3 5.6
2017-Sep-16 00:27N 29°46' W 095°05'2 5.0
2017-Sep-16 00:00N 29°44' W 095°03'2 4.9
2017-Sep-15 23:30N 29°43' W 095°01'2 5.0
2017-Sep-15 23:00N 29°41' W 094°59'2 4.6
2017-Sep-15 22:30N 29°39' W 094°58'2 5.0
2017-Sep-15 22:00N 29°37' W 094°57'4 5.2
2017-Sep-15 21:19N 29°34' W 094°55'2 5.2
2017-Sep-15 21:00N 29°32' W 094°54'3 5.1
2017-Sep-15 20:30N 29°30' W 094°52'  
Track history (hours):
 
Tides and Currents Weather Stations Pressure Air Temp Water Temp Dewpoint Dewpoint Depression Visibility Wind Speed Wind Dir Waves Ship Positions

Kate Golding

Owner: GOLDING BARGE LINE, INC, VICKSBURG, MS. More information available from US FCC via Universal Licensing System and Coast Guard Vessel Documentation Center.

Last reported at 2017-Sep-22 02:00 UTC. Time now 2017-Sep-22 10:05 UTC.
Position N 30°10' W 093°19'.

Length 121 m; draft 2.4 m.

Type: . MMSI: 367651810.

Date/timePositionNaut miles runAvg speedWind from/ knotsBaromVisibWave heightAir tempDewpointWater temp
2017-Sep-22 02:00N 30°10' W 093°19'0 0.0
2017-Sep-22 01:30N 30°10' W 093°19'0 0.0
2017-Sep-22 01:00N 30°10' W 093°19'0 0.0
2017-Sep-22 00:30N 30°10' W 093°19'0 0.0
2017-Sep-22 00:00N 30°10' W 093°19'0 0.0
2017-Sep-21 23:30N 30°10' W 093°19'0 0.0
2017-Sep-21 23:00N 30°10' W 093°19'1 2.8
2017-Sep-21 22:30N 30°11' W 093°19'3 5.2
2017-Sep-21 22:00N 30°12' W 093°16'1 1.9
2017-Sep-21 21:31N 30°13' W 093°16'0 0.6
2017-Sep-21 20:58N 30°14' W 093°16'0 0.0
2017-Sep-21 20:28N 30°14' W 093°16'0 0.0
2017-Sep-21 19:58N 30°14' W 093°16'0 0.0
2017-Sep-21 19:25N 30°14' W 093°16'0 0.0
2017-Sep-21 18:55N 30°14' W 093°16'0 0.0
2017-Sep-21 18:28N 30°14' W 093°16'0 0.0
2017-Sep-21 17:58N 30°14' W 093°16'0 0.0
2017-Sep-21 17:28N 30°14' W 093°16'0 0.0
2017-Sep-21 16:55N 30°14' W 093°16'0 0.0
2017-Sep-21 16:22N 30°14' W 093°16'0 0.0
2017-Sep-21 15:58N 30°13' W 093°16'0 0.0
2017-Sep-21 15:28N 30°14' W 093°16'0 0.0
2017-Sep-21 14:58N 30°13' W 093°16'0 0.0
2017-Sep-21 14:28N 30°14' W 093°16'0 0.0
2017-Sep-21 13:58N 30°14' W 093°16'0 0.0
2017-Sep-21 13:28N 30°14' W 093°16'0 0.0
2017-Sep-21 12:58N 30°14' W 093°16'0 0.0
2017-Sep-21 12:28N 30°14' W 093°16'0 0.0
2017-Sep-21 11:58N 30°13' W 093°16'0 0.0
2017-Sep-21 11:28N 30°14' W 093°16'0 0.0
2017-Sep-21 10:58N 30°14' W 093°16'0 0.0
2017-Sep-21 10:28N 30°14' W 093°16'0 0.0
2017-Sep-21 09:58N 30°13' W 093°16'0 0.0
2017-Sep-21 09:28N 30°14' W 093°16'0 0.0
2017-Sep-21 08:58N 30°14' W 093°16'0 0.0
2017-Sep-21 08:28N 30°14' W 093°16'0 0.0
2017-Sep-21 07:58N 30°14' W 093°16'0 0.0
2017-Sep-21 07:28N 30°14' W 093°16'0 0.0
2017-Sep-21 06:58N 30°14' W 093°16'0 0.0
2017-Sep-21 06:28N 30°14' W 093°16'0 0.0
2017-Sep-21 05:58N 30°14' W 093°16'0 0.7
2017-Sep-21 05:28N 30°13' W 093°16'1 1.9
2017-Sep-21 05:00N 30°12' W 093°16'0 0.8
2017-Sep-21 04:30N 30°12' W 093°17'2 4.2
2017-Sep-21 04:00N 30°11' W 093°19'2 4.5
2017-Sep-21 03:31N 30°09' W 093°20'3 5.1
2017-Sep-21 03:00N 30°07' W 093°20'2 4.2
2017-Sep-21 02:30N 30°04' W 093°20'1 1.2
2017-Sep-21 01:59N 30°04' W 093°21'1 1.7
2017-Sep-21 01:29N 30°04' W 093°22'1 2.9
2017-Sep-21 01:00N 30°04' W 093°23'2 5.0
2017-Sep-21 00:30N 30°04' W 093°26'2 4.4
2017-Sep-21 00:00N 30°04' W 093°29'0 0.0
2017-Sep-20 23:30N 30°04' W 093°29'0 0.6
2017-Sep-20 23:00N 30°04' W 093°29'3 5.3
2017-Sep-20 22:30N 30°04' W 093°32'3 5.3
2017-Sep-20 21:59N 30°04' W 093°35'3 5.2
2017-Sep-20 21:28N 30°04' W 093°38'72 3.7
2017-Sep-20 01:52N 29°30' W 094°52'3 7.8
2017-Sep-20 01:30N 29°32' W 094°54'3 6.8
2017-Sep-20 01:00N 29°35' W 094°56'4 7.8
2017-Sep-20 00:30N 29°39' W 094°58'4 7.6
2017-Sep-20 00:00N 29°42' W 095°00'3 6.2
2017-Sep-19 23:30N 29°44' W 095°03'3 5.1
2017-Sep-19 22:57N 29°45' W 095°06'3 6.9
2017-Sep-19 22:30N 29°45' W 095°10'4 0.2
2017-Sep-19 03:23N 29°43' W 095°14'0 0.0
2017-Sep-19 02:59N 29°43' W 095°14'0 0.0
2017-Sep-19 02:29N 29°43' W 095°14'0 0.0
2017-Sep-18 23:47N 29°43' W 095°14'0 0.0
2017-Sep-18 23:23N 29°43' W 095°14'0 0.0
2017-Sep-18 22:53N 29°43' W 095°14'0 0.0
2017-Sep-18 22:29N 29°43' W 095°14'0 0.1
2017-Sep-18 21:52N 29°43' W 095°14'1 1.6
2017-Sep-18 21:29N 29°44' W 095°14'3 5.8
2017-Sep-18 20:58N 29°45' W 095°11'2 4.5
2017-Sep-18 20:29N 29°44' W 095°08'3 3.9
2017-Sep-18 19:49N 29°45' W 095°06'2 4.3
2017-Sep-18 19:23N 29°47' W 095°04'1 0.5
2017-Sep-18 18:03N 29°47' W 095°04'0 0.1
2017-Sep-18 17:37N 29°47' W 095°04'0 0.2
2017-Sep-18 17:19N 29°47' W 095°04'2 1.4
2017-Sep-18 15:45N 29°46' W 095°06'0 0.0
2017-Sep-18 15:12N 29°46' W 095°06'0 0.0
2017-Sep-18 14:57N 29°46' W 095°06'0 0.0
2017-Sep-18 14:30N 29°46' W 095°06'0 0.0
2017-Sep-18 14:00N 29°46' W 095°06'0 0.0
2017-Sep-18 13:30N 29°46' W 095°06'0 0.0
2017-Sep-18 12:51N 29°46' W 095°06'0 0.0
2017-Sep-18 12:24N 29°46' W 095°06'0 0.0
2017-Sep-18 10:30N 29°46' W 095°06'0 0.0
2017-Sep-18 10:00N 29°46' W 095°06'0 0.0
2017-Sep-18 09:22N 29°46' W 095°06'1 0.1
2017-Sep-18 01:26N 29°46' W 095°05'4 6.1
2017-Sep-18 00:52N 29°44' W 095°09'1 0.8
2017-Sep-17 23:00N 29°45' W 095°10'4 6.2
2017-Sep-17 22:17N 29°46' W 095°05'0 0.0
2017-Sep-17 06:58N 29°46' W 095°06'2 2.9
2017-Sep-17 06:15N 29°47' W 095°04'2 3.8
2017-Sep-17 05:50N 29°46' W 095°05'2 4.9
2017-Sep-17 05:30N 29°45' W 095°06'3 4.7
2017-Sep-17 04:56N 29°44' W 095°09'2 2.0
2017-Sep-17 03:47N 29°44' W 095°12'3 6.0
2017-Sep-17 03:15N 29°44' W 095°08'3 5.7
2017-Sep-17 02:44N 29°46' W 095°05'2 1.4
2017-Sep-17 01:02N 29°47' W 095°04'0 0.1
2017-Sep-16 22:54N 29°47' W 095°04'2 4.1
2017-Sep-16 22:28N 29°46' W 095°05'3 0.1
2017-Sep-16 00:56N 29°44' W 095°08'3 5.6
2017-Sep-16 00:27N 29°46' W 095°05'2 5.0
2017-Sep-16 00:00N 29°44' W 095°03'2 4.9
2017-Sep-15 23:30N 29°43' W 095°01'2 5.0
2017-Sep-15 23:00N 29°41' W 094°59'2 4.6
2017-Sep-15 22:30N 29°39' W 094°58'2 5.0
2017-Sep-15 22:00N 29°37' W 094°57'4 5.2
2017-Sep-15 21:19N 29°34' W 094°55'2 5.2
2017-Sep-15 21:00N 29°32' W 094°54'3 5.1
2017-Sep-15 20:30N 29°30' W 094°52'  

Dump ship's entire track history